FLIGHT INFORMATION
United Airlines

UAL2380

At Arrival Gate

KSFO
 PHNL
DATE: 2019-12-01
GATE:  -
GATE DEPARTURE: 18:53
TAKEOFF: 19:05
DATE: 2019-12-02
GATE: 8
LANDING: 00:03
GATE ARRIVAL: 00:08
FLIGHT DATA
Crew: DAN DOWNS
Speed: 470 kts Altitude: 34000 ft
Stage Length: 2083 nm
Route: 
Block Time: 5.3 Flight Time: 5
Fuel Used: 31087 LB
TRACK DATA
50000 FT1000 KTAltitudeSpeed
AIRCRAFT INFORMATION
Aircraft Type: B738SSW
Registration: N37267
SELCAL:  MSN/LN: 31586 / 939
Operator: UNITED AIRLINES
Flights: 26 Block Time: 66.1 Flight Time: 59.4
Fuel Used: 394987 LB
  • DEPARTURE INFORMATION
    Date: 2019-12-01
    Airport: KSFO
    Gate:  -
    Gate Departure: 18:53
    Takeoff: 19:05
    ARRIVAL INFORMATION
    Date: 2019-12-02
    Airport: PHNL
    Gate: 8
    Landing: 00:03
    Gate Arrival: 00:08
  • FLIGHT DATA
    Crew: DAN DOWNS
    Speed: 470 kts Altitude: 34000 ft
    Stage Length: 1125 nm
    Route: 
    Block Time: 5.3 Flight Time: 5
    Fuel Used: 31087 LB
  • AIRCRAFT INFORMATION
    Aircraft Type: B738SSW
    Registration: N37267
    SELCAL:  MSN/LN: 31586 / 939
    Operator: United Airlines
    Flights: 26 Block Time: 66.1 Flight Time: 59.4
    Fuel Used: 394987 LB

DATALINK LOG | Newest first | Current as of: 2020-05-25 11:26:38
LABEL ID SEQUENCE CONTENT Dn/Up
QD095300:08 8.2▼ Dn
QC043600:03▼ Dn
GA3145GATE 8▲ Up
GR2807PHNL --:-- HI-VAL NO DIPL/VIP NO▼ Dn
2U2459PHNL 012253Z 06016G24KT 10SM FEW023 SCT034 BKN045 BKN250 27/18 A2997 RMK AO2 SLP149 VCSH N-NE T02670178 $▲ Up
2S2459PHNL▼ Dn
2U2100PHOG 012154Z 04015G21KT 10SM SCT025 SCT045 26/19 A3002 RMK AO2 SLP171 T02560189 $▲ Up
2U2100PHNL 012153Z 04014G21KT 10SM FEW023 FEW035 SCT045 BKN250 27/18 A3000 RMK AO2 PK WND 03031/2127 SLP157 VCSH NE T02720178 $▲ Up
2S2100PHNL PHOG▼ Dn
QB064419:05▼ Dn
QA545918:53 39.3▼ Dn
A33408CLEARED TO PHNL VIA GAPP7 ALCOA R463 ALLBE R463 ADTIL R463 APACK MAGGI3. SQUAWK 1541.▲ Up
Q03257[LINK ACK]▲ Up
Q03045[LINK TEST]▼ Dn


AIRCRAFT HISTORY